CFG7MB EGKK-EVRA
Flight info
| Callsign | CFG7MB |
|---|---|
| Flight time | 2h 20m |
| Altitude | 35000 |
| Route | FRANE M604 PAAVO Q295 SOMVA DCT MAVAS DCT ANDIK DCT LOMPU DCT NINTA DCT ADAXA M405 ORVIX |
| Aircraft | A321/M-SDE3FGHIRWY/LB1 |
Departure
| Time | 2026-05-06 13:13 |
|---|---|
| Airport | London Gatwick Airport (EGKK) |
Arrival
| Time | 2026-05-06 15:33 |
|---|---|
| Airport | Riga International Airport (EVRA) |
| Time | Latitude | Longitude | Altitude | Speed | Heading |
|---|---|---|---|---|---|
| 2026-05-06 12:35 | 51.15129 | -0.19443 | 204 ft | 0 kts | 77° |
| 2026-05-06 13:03 | 51.15127 | -0.19458 | 204 ft | 4 kts | 79° |
| 2026-05-06 13:03 | 51.15123 | -0.19500 | 210 ft | 4 kts | 85° |
| 2026-05-06 13:04 | 51.15122 | -0.19543 | 216 ft | 4 kts | 96° |
| 2026-05-06 13:04 | 51.15129 | -0.19582 | 215 ft | 4 kts | 133° |
| 2026-05-06 13:04 | 51.15139 | -0.19594 | 210 ft | 0 kts | 167° |
| 2026-05-06 13:07 | 51.15125 | -0.19589 | 214 ft | 6 kts | 167° |
| 2026-05-06 13:07 | 51.15089 | -0.19577 | 211 ft | 5 kts | 168° |
| 2026-05-06 13:08 | 51.15033 | -0.19576 | 204 ft | 16 kts | 207° |
| 2026-05-06 13:08 | 51.14989 | -0.19754 | 204 ft | 17 kts | 258° |
| 2026-05-06 13:08 | 51.14966 | -0.19936 | 207 ft | 16 kts | 258° |
| 2026-05-06 13:08 | 51.14942 | -0.20102 | 214 ft | 15 kts | 257° |
| 2026-05-06 13:09 | 51.14920 | -0.20251 | 203 ft | 13 kts | 257° |
| 2026-05-06 13:09 | 51.14902 | -0.20382 | 203 ft | 11 kts | 258° |
| 2026-05-06 13:09 | 51.14889 | -0.20481 | 203 ft | 6 kts | 259° |
| 2026-05-06 13:09 | 51.14877 | -0.20586 | 208 ft | 19 kts | 259° |
| 2026-05-06 13:10 | 51.14845 | -0.20819 | 203 ft | 21 kts | 257° |
| 2026-05-06 13:10 | 51.14822 | -0.20982 | 208 ft | 13 kts | 257° |
| 2026-05-06 13:10 | 51.14802 | -0.21109 | 209 ft | 11 kts | 254° |
| 2026-05-06 13:10 | 51.14780 | -0.21211 | 208 ft | 9 kts | 253° |
| 2026-05-06 13:11 | 51.14767 | -0.21301 | 212 ft | 7 kts | 258° |
| 2026-05-06 13:11 | 51.14753 | -0.21368 | 212 ft | 6 kts | 237° |
| 2026-05-06 13:11 | 51.14724 | -0.21393 | 207 ft | 4 kts | 188° |
| 2026-05-06 13:11 | 51.14682 | -0.21377 | 208 ft | 13 kts | 157° |
| 2026-05-06 13:12 | 51.14585 | -0.21308 | 212 ft | 14 kts | 154° |
| 2026-05-06 13:12 | 51.14527 | -0.21191 | 204 ft | 13 kts | 104° |
| 2026-05-06 13:12 | 51.14526 | -0.21129 | 212 ft | 0 kts | 83° |
| 2026-05-06 13:12 | 51.14557 | -0.20890 | 209 ft | 57 kts | 77° |
| 2026-05-06 13:13 | 51.14689 | -0.19947 | 213 ft | 118 kts | 77° |
| 2026-05-06 13:13 | 51.14899 | -0.18407 | 212 ft | 164 kts | 79° |
| 2026-05-06 13:13 | 51.15100 | -0.16702 | 1031 ft | 146 kts | 74° |
| 2026-05-06 13:13 | 51.15314 | -0.15096 | 1652 ft | 155 kts | 73° |
| 2026-05-06 13:14 | 51.15573 | -0.13302 | 2011 ft | 177 kts | 73° |
| 2026-05-06 13:14 | 51.15864 | -0.11284 | 2338 ft | 197 kts | 72° |
| 2026-05-06 13:14 | 51.16183 | -0.09050 | 2644 ft | 214 kts | 72° |
| 2026-05-06 13:14 | 51.16519 | -0.06668 | 3013 ft | 230 kts | 73° |
| 2026-05-06 13:15 | 51.16858 | -0.04101 | 3467 ft | 242 kts | 79° |
| 2026-05-06 13:15 | 51.16888 | -0.01331 | 3986 ft | 259 kts | 88° |
| 2026-05-06 13:15 | 51.16840 | 0.01578 | 4730 ft | 267 kts | 88° |
| 2026-05-06 13:15 | 51.16781 | 0.04675 | 5000 ft | 294 kts | 89° |
| 2026-05-06 13:16 | 51.16714 | 0.07977 | 5616 ft | 297 kts | 89° |
| 2026-05-06 13:16 | 51.16640 | 0.11199 | 6968 ft | 281 kts | 88° |
| 2026-05-06 13:16 | 51.16573 | 0.14280 | 7795 ft | 281 kts | 90° |
| 2026-05-06 13:16 | 51.16526 | 0.17399 | 8451 ft | 284 kts | 88° |
| 2026-05-06 13:17 | 51.16522 | 0.20562 | 9102 ft | 287 kts | 86° |
| 2026-05-06 13:17 | 51.16535 | 0.23774 | 9709 ft | 291 kts | 86° |
| 2026-05-06 13:17 | 51.16553 | 0.27009 | 10268 ft | 294 kts | 86° |
| 2026-05-06 13:17 | 51.16569 | 0.30291 | 10816 ft | 298 kts | 88° |
| 2026-05-06 13:18 | 51.16580 | 0.33607 | 11389 ft | 301 kts | 88° |
| 2026-05-06 13:18 | 51.16586 | 0.36968 | 11924 ft | 304 kts | 88° |
| 2026-05-06 13:18 | 51.16589 | 0.40313 | 12495 ft | 307 kts | 89° |
| 2026-05-06 13:18 | 51.16590 | 0.43772 | 12931 ft | 311 kts | 89° |
| 2026-05-06 13:19 | 51.16613 | 0.47198 | 13314 ft | 313 kts | 83° |
| 2026-05-06 13:19 | 51.16628 | 0.47480 | 13351 ft | 313 kts | 81° |
| 2026-05-06 13:19 | 51.17190 | 0.50821 | 13892 ft | 312 kts | 63° |
| 2026-05-06 13:19 | 51.18405 | 0.53648 | 14373 ft | 311 kts | 42° |
| 2026-05-06 13:20 | 51.20143 | 0.55665 | 14810 ft | 310 kts | 22° |
| 2026-05-06 13:20 | 51.22191 | 0.56698 | 15251 ft | 310 kts | 12° |
| 2026-05-06 13:20 | 51.24304 | 0.57470 | 15728 ft | 312 kts | 9° |
| 2026-05-06 13:20 | 51.26427 | 0.58248 | 16198 ft | 315 kts | 10° |
| 2026-05-06 13:21 | 51.28577 | 0.59041 | 16657 ft | 318 kts | 11° |
| 2026-05-06 13:21 | 51.30745 | 0.59847 | 17137 ft | 321 kts | 11° |
| 2026-05-06 13:21 | 51.32924 | 0.60665 | 17570 ft | 324 kts | 11° |
| 2026-05-06 13:21 | 51.35098 | 0.61481 | 18026 ft | 327 kts | 11° |
| 2026-05-06 13:22 | 51.37338 | 0.62319 | 18459 ft | 330 kts | 11° |
| 2026-05-06 13:22 | 51.39588 | 0.63160 | 18789 ft | 336 kts | 11° |
| 2026-05-06 13:22 | 51.41908 | 0.64029 | 18910 ft | 349 kts | 11° |
| 2026-05-06 13:22 | 51.44308 | 0.64934 | 19039 ft | 360 kts | 11° |
| 2026-05-06 13:23 | 51.46786 | 0.65871 | 19156 ft | 371 kts | 11° |
| 2026-05-06 13:23 | 51.49337 | 0.66842 | 19285 ft | 382 kts | 11° |
| 2026-05-06 13:23 | 51.51953 | 0.67838 | 19410 ft | 391 kts | 11° |
| 2026-05-06 13:23 | 51.54591 | 0.68847 | 19526 ft | 399 kts | 12° |
| 2026-05-06 13:24 | 51.57311 | 0.69889 | 19743 ft | 404 kts | 12° |
| 2026-05-06 13:24 | 51.60053 | 0.70937 | 20031 ft | 406 kts | 12° |
| 2026-05-06 13:24 | 51.62809 | 0.71988 | 20334 ft | 408 kts | 11° |
| 2026-05-06 13:24 | 51.65584 | 0.73044 | 20647 ft | 410 kts | 12° |
| 2026-05-06 13:25 | 51.68367 | 0.74106 | 20963 ft | 412 kts | 11° |
| 2026-05-06 13:25 | 51.71163 | 0.75173 | 21276 ft | 414 kts | 12° |
| 2026-05-06 13:25 | 51.73975 | 0.76252 | 21611 ft | 416 kts | 11° |
| 2026-05-06 13:25 | 51.76803 | 0.77339 | 21922 ft | 418 kts | 11° |
| 2026-05-06 13:26 | 51.79609 | 0.78602 | 22247 ft | 422 kts | 18° |
| 2026-05-06 13:26 | 51.82295 | 0.80571 | 22558 ft | 427 kts | 28° |
| 2026-05-06 13:26 | 51.84770 | 0.83249 | 23061 ft | 423 kts | 38° |
| 2026-05-06 13:26 | 51.86861 | 0.86387 | 23798 ft | 417 kts | 49° |
| 2026-05-06 13:27 | 51.88400 | 0.90379 | 23918 ft | 424 kts | 68° |
| 2026-05-06 13:27 | 51.89109 | 0.95018 | 24039 ft | 430 kts | 86° |
| 2026-05-06 13:27 | 51.89164 | 0.99904 | 24154 ft | 435 kts | 89° |
| 2026-05-06 13:27 | 51.89404 | 1.04821 | 24328 ft | 440 kts | 82° |
| 2026-05-06 13:28 | 51.90029 | 1.09678 | 24535 ft | 443 kts | 74° |
| 2026-05-06 13:28 | 51.91064 | 1.14388 | 24793 ft | 445 kts | 67° |
| 2026-05-06 13:28 | 51.92275 | 1.18940 | 25057 ft | 446 kts | 66° |
| 2026-05-06 13:28 | 51.93550 | 1.23592 | 25344 ft | 448 kts | 65° |
| 2026-05-06 13:29 | 51.94830 | 1.28207 | 25604 ft | 449 kts | 65° |
| 2026-05-06 13:29 | 51.96098 | 1.32777 | 25870 ft | 451 kts | 66° |
| 2026-05-06 13:29 | 51.97372 | 1.37416 | 26134 ft | 452 kts | 66° |
| 2026-05-06 13:29 | 51.98644 | 1.42096 | 26385 ft | 454 kts | 66° |
| 2026-05-06 13:30 | 51.99912 | 1.46799 | 26627 ft | 455 kts | 66° |
| 2026-05-06 13:30 | 52.01181 | 1.51535 | 26824 ft | 459 kts | 67° |
| 2026-05-06 13:30 | 52.02455 | 1.56323 | 27021 ft | 461 kts | 67° |
| 2026-05-06 13:30 | 52.03714 | 1.61055 | 27274 ft | 463 kts | 67° |
| 2026-05-06 13:31 | 52.04996 | 1.65868 | 27534 ft | 464 kts | 67° |
| 2026-05-06 13:31 | 52.06283 | 1.70697 | 27753 ft | 466 kts | 67° |
| 2026-05-06 13:31 | 52.07573 | 1.75539 | 27991 ft | 467 kts | 67° |
| 2026-05-06 13:31 | 52.08865 | 1.80392 | 28203 ft | 468 kts | 67° |
| 2026-05-06 13:32 | 52.10166 | 1.85284 | 28410 ft | 470 kts | 67° |
| 2026-05-06 13:32 | 52.11457 | 1.90173 | 28605 ft | 471 kts | 67° |
| 2026-05-06 13:32 | 52.12746 | 1.95080 | 28792 ft | 472 kts | 67° |
| 2026-05-06 13:32 | 52.14038 | 2.00002 | 28956 ft | 473 kts | 68° |
| 2026-05-06 13:33 | 52.15335 | 2.04937 | 29138 ft | 474 kts | 67° |
| 2026-05-06 13:33 | 52.16618 | 2.09816 | 29379 ft | 473 kts | 67° |
| 2026-05-06 13:33 | 52.17907 | 2.14734 | 29618 ft | 473 kts | 68° |
| 2026-05-06 13:33 | 52.19197 | 2.19672 | 29867 ft | 472 kts | 68° |
| 2026-05-06 13:34 | 52.20477 | 2.24598 | 30089 ft | 471 kts | 68° |
| 2026-05-06 13:34 | 52.21755 | 2.29528 | 30299 ft | 471 kts | 68° |
| 2026-05-06 13:34 | 52.23024 | 2.34433 | 30509 ft | 470 kts | 68° |
| 2026-05-06 13:34 | 52.24293 | 2.39342 | 30709 ft | 469 kts | 68° |
| 2026-05-06 13:35 | 52.25558 | 2.44247 | 30936 ft | 469 kts | 68° |
| 2026-05-06 13:35 | 52.26817 | 2.49150 | 31125 ft | 468 kts | 68° |
| 2026-05-06 13:35 | 52.28074 | 2.54055 | 31328 ft | 468 kts | 68° |
| 2026-05-06 13:35 | 52.29330 | 2.58965 | 31525 ft | 467 kts | 68° |
| 2026-05-06 13:36 | 52.30565 | 2.63860 | 31732 ft | 467 kts | 71° |
| 2026-05-06 13:36 | 52.31517 | 2.68849 | 31917 ft | 466 kts | 75° |
| 2026-05-06 13:36 | 52.32411 | 2.73922 | 32116 ft | 465 kts | 75° |
| 2026-05-06 13:36 | 52.33308 | 2.79013 | 32306 ft | 465 kts | 75° |
| 2026-05-06 13:37 | 52.34202 | 2.84092 | 32494 ft | 465 kts | 75° |
| 2026-05-06 13:37 | 52.35094 | 2.89174 | 32688 ft | 464 kts | 75° |
| 2026-05-06 13:37 | 52.35984 | 2.94265 | 32873 ft | 464 kts | 75° |
| 2026-05-06 13:37 | 52.36866 | 2.99331 | 33071 ft | 463 kts | 75° |
| 2026-05-06 13:38 | 52.37748 | 3.04404 | 33258 ft | 463 kts | 75° |
| 2026-05-06 13:38 | 52.38624 | 3.09457 | 33472 ft | 462 kts | 75° |
| 2026-05-06 13:38 | 52.39501 | 3.14527 | 33646 ft | 462 kts | 75° |
| 2026-05-06 13:38 | 52.40369 | 3.19575 | 33841 ft | 461 kts | 75° |
| 2026-05-06 13:39 | 52.41236 | 3.24642 | 33997 ft | 461 kts | 75° |
| 2026-05-06 13:39 | 52.42100 | 3.29702 | 34155 ft | 461 kts | 75° |
| 2026-05-06 13:39 | 52.42966 | 3.34763 | 34292 ft | 461 kts | 75° |
| 2026-05-06 13:39 | 52.43826 | 3.39808 | 34422 ft | 461 kts | 75° |
| 2026-05-06 13:40 | 52.44686 | 3.44872 | 34545 ft | 461 kts | 75° |
| 2026-05-06 13:40 | 52.45533 | 3.49871 | 34664 ft | 461 kts | 76° |
| 2026-05-06 13:40 | 52.46389 | 3.54938 | 34803 ft | 460 kts | 76° |
| 2026-05-06 13:40 | 52.47239 | 3.60001 | 34922 ft | 461 kts | 76° |
| 2026-05-06 13:41 | 52.48095 | 3.65102 | 34938 ft | 463 kts | 76° |
| 2026-05-06 13:41 | 52.49785 | 3.75218 | 34937 ft | 463 kts | 76° |
| 2026-05-06 13:42 | 52.51469 | 3.85395 | 34931 ft | 463 kts | 76° |
| 2026-05-06 13:42 | 52.53148 | 3.95587 | 34934 ft | 463 kts | 76° |
| 2026-05-06 13:43 | 52.54819 | 4.05784 | 34920 ft | 460 kts | 76° |
| 2026-05-06 13:43 | 52.56478 | 4.15929 | 34922 ft | 460 kts | 76° |
| 2026-05-06 13:44 | 52.58129 | 4.26097 | 34918 ft | 460 kts | 76° |
| 2026-05-06 13:44 | 52.59763 | 4.36219 | 34926 ft | 460 kts | 77° |
| 2026-05-06 13:45 | 52.61385 | 4.46392 | 34915 ft | 460 kts | 77° |
| 2026-05-06 13:45 | 52.63803 | 4.61667 | 34908 ft | 460 kts | 77° |
| 2026-05-06 13:46 | 52.65413 | 4.71850 | 34906 ft | 460 kts | 77° |
| 2026-05-06 13:46 | 52.67016 | 4.82051 | 34926 ft | 460 kts | 77° |
| 2026-05-06 13:47 | 52.68609 | 4.92278 | 34917 ft | 461 kts | 77° |
| 2026-05-06 13:47 | 52.70197 | 5.02535 | 34901 ft | 461 kts | 77° |
| 2026-05-06 13:48 | 52.71773 | 5.12789 | 34909 ft | 461 kts | 77° |
| 2026-05-06 13:48 | 52.73336 | 5.22989 | 34907 ft | 462 kts | 75° |
| 2026-05-06 13:49 | 52.75922 | 5.32697 | 34918 ft | 464 kts | 61° |
| 2026-05-06 13:49 | 52.78627 | 5.40366 | 34918 ft | 464 kts | 61° |
| 2026-05-06 13:50 | 52.81856 | 5.49618 | 34909 ft | 464 kts | 61° |
| 2026-05-06 13:50 | 52.85072 | 5.58874 | 34909 ft | 464 kts | 61° |
| 2026-05-06 13:51 | 52.88285 | 5.68149 | 34912 ft | 464 kts | 61° |
| 2026-05-06 13:51 | 52.91497 | 5.77423 | 34906 ft | 464 kts | 61° |
| 2026-05-06 13:52 | 52.94680 | 5.86669 | 34909 ft | 464 kts | 61° |
| 2026-05-06 13:52 | 52.97875 | 5.95987 | 34906 ft | 464 kts | 62° |
| 2026-05-06 13:53 | 53.01063 | 6.05310 | 34905 ft | 464 kts | 62° |
| 2026-05-06 13:53 | 53.04244 | 6.14644 | 34902 ft | 464 kts | 62° |
| 2026-05-06 13:54 | 53.07402 | 6.23962 | 34907 ft | 463 kts | 62° |
| 2026-05-06 13:54 | 53.10552 | 6.33309 | 34904 ft | 463 kts | 62° |
| 2026-05-06 13:55 | 53.13698 | 6.42665 | 34898 ft | 463 kts | 62° |
| 2026-05-06 13:55 | 53.16836 | 6.52049 | 34898 ft | 464 kts | 62° |
| 2026-05-06 13:56 | 53.19958 | 6.61396 | 34920 ft | 464 kts | 62° |
| 2026-05-06 13:56 | 53.23096 | 6.70807 | 34914 ft | 464 kts | 62° |
| 2026-05-06 13:57 | 53.26226 | 6.80237 | 34915 ft | 464 kts | 62° |
| 2026-05-06 13:57 | 53.29342 | 6.89689 | 34914 ft | 464 kts | 62° |
| 2026-05-06 13:58 | 53.32429 | 6.99103 | 34921 ft | 464 kts | 62° |
| 2026-05-06 13:58 | 53.35532 | 7.08578 | 34926 ft | 464 kts | 62° |
| 2026-05-06 13:59 | 53.38632 | 7.18048 | 34927 ft | 464 kts | 62° |
| 2026-05-06 13:59 | 53.41723 | 7.27532 | 34921 ft | 463 kts | 63° |
| 2026-05-06 14:00 | 53.44800 | 7.37050 | 34898 ft | 464 kts | 63° |
| 2026-05-06 14:00 | 53.47862 | 7.46573 | 34891 ft | 463 kts | 63° |
| 2026-05-06 14:01 | 53.50922 | 7.56103 | 34932 ft | 464 kts | 63° |
| 2026-05-06 14:01 | 53.53963 | 7.65595 | 34922 ft | 464 kts | 63° |
| 2026-05-06 14:02 | 53.57015 | 7.75175 | 34924 ft | 465 kts | 63° |
| 2026-05-06 14:02 | 53.60077 | 7.84811 | 34912 ft | 465 kts | 63° |
| 2026-05-06 14:03 | 53.63117 | 7.94422 | 34903 ft | 465 kts | 63° |
| 2026-05-06 14:03 | 53.66129 | 8.03985 | 34896 ft | 465 kts | 63° |
| 2026-05-06 14:04 | 53.69160 | 8.13638 | 34895 ft | 465 kts | 63° |
| 2026-05-06 14:04 | 53.72181 | 8.23297 | 34890 ft | 465 kts | 63° |
| 2026-05-06 14:05 | 53.75194 | 8.32975 | 34890 ft | 466 kts | 63° |
| 2026-05-06 14:05 | 53.78201 | 8.42671 | 34885 ft | 466 kts | 64° |
| 2026-05-06 14:06 | 53.81206 | 8.52399 | 34894 ft | 466 kts | 64° |
| 2026-05-06 14:06 | 53.84193 | 8.62130 | 34911 ft | 466 kts | 64° |
| 2026-05-06 14:07 | 53.87160 | 8.71826 | 34907 ft | 466 kts | 64° |
| 2026-05-06 14:07 | 53.90136 | 8.81579 | 34901 ft | 466 kts | 64° |
| 2026-05-06 14:08 | 53.93104 | 8.91367 | 34895 ft | 466 kts | 64° |
| 2026-05-06 14:08 | 53.96064 | 9.01155 | 34897 ft | 466 kts | 64° |
| 2026-05-06 14:09 | 53.99014 | 9.10956 | 34889 ft | 466 kts | 64° |
| 2026-05-06 14:09 | 54.01966 | 9.20785 | 34894 ft | 466 kts | 64° |
| 2026-05-06 14:10 | 54.04903 | 9.30607 | 34886 ft | 466 kts | 64° |
| 2026-05-06 14:10 | 54.07836 | 9.40471 | 34890 ft | 466 kts | 65° |
| 2026-05-06 14:11 | 54.10756 | 9.50326 | 34893 ft | 466 kts | 65° |
| 2026-05-06 14:11 | 54.13668 | 9.60197 | 34892 ft | 466 kts | 65° |
| 2026-05-06 14:12 | 54.16574 | 9.70080 | 34901 ft | 466 kts | 65° |
| 2026-05-06 14:12 | 54.19461 | 9.79914 | 34898 ft | 466 kts | 65° |
| 2026-05-06 14:13 | 54.22347 | 9.89813 | 34920 ft | 466 kts | 65° |
| 2026-05-06 14:13 | 54.25219 | 9.99741 | 34923 ft | 466 kts | 65° |
| 2026-05-06 14:14 | 54.28089 | 10.09700 | 34925 ft | 466 kts | 65° |
| 2026-05-06 14:14 | 54.30928 | 10.19573 | 34935 ft | 466 kts | 65° |
| 2026-05-06 14:15 | 54.33804 | 10.29590 | 34934 ft | 466 kts | 66° |
| 2026-05-06 14:15 | 54.36635 | 10.39494 | 34903 ft | 466 kts | 66° |
| 2026-05-06 14:16 | 54.39484 | 10.49556 | 34892 ft | 466 kts | 66° |
| 2026-05-06 14:16 | 54.42305 | 10.59508 | 34909 ft | 466 kts | 66° |
| 2026-05-06 14:17 | 54.45134 | 10.69544 | 34894 ft | 466 kts | 66° |
| 2026-05-06 14:17 | 54.47947 | 10.79579 | 34896 ft | 466 kts | 66° |
| 2026-05-06 14:18 | 54.50759 | 10.89653 | 34898 ft | 466 kts | 66° |
| 2026-05-06 14:18 | 54.53558 | 10.99746 | 34894 ft | 467 kts | 67° |
| 2026-05-06 14:19 | 54.56352 | 11.09851 | 34894 ft | 468 kts | 67° |
| 2026-05-06 14:19 | 54.59143 | 11.19977 | 34895 ft | 468 kts | 67° |
| 2026-05-06 14:20 | 54.61898 | 11.30088 | 34909 ft | 468 kts | 67° |
| 2026-05-06 14:20 | 54.64632 | 11.40289 | 34899 ft | 468 kts | 68° |
| 2026-05-06 14:21 | 54.67355 | 11.50489 | 34910 ft | 467 kts | 68° |
| 2026-05-06 14:21 | 54.70070 | 11.60711 | 34913 ft | 467 kts | 68° |
| 2026-05-06 14:22 | 54.72777 | 11.70912 | 34919 ft | 467 kts | 68° |
| 2026-05-06 14:22 | 54.75483 | 11.81156 | 34931 ft | 467 kts | 68° |
| 2026-05-06 14:23 | 54.78180 | 11.91393 | 34926 ft | 468 kts | 68° |
| 2026-05-06 14:23 | 54.80872 | 12.01671 | 34924 ft | 467 kts | 68° |
| 2026-05-06 14:24 | 54.83542 | 12.11915 | 34932 ft | 466 kts | 68° |
| 2026-05-06 14:24 | 54.86198 | 12.22160 | 34947 ft | 465 kts | 68° |
| 2026-05-06 14:25 | 54.88846 | 12.32411 | 34947 ft | 465 kts | 68° |
| 2026-05-06 14:25 | 54.91467 | 12.42607 | 34953 ft | 465 kts | 68° |
| 2026-05-06 14:26 | 54.94096 | 12.52885 | 34951 ft | 465 kts | 68° |
| 2026-05-06 14:26 | 54.96715 | 12.63190 | 34951 ft | 465 kts | 69° |
| 2026-05-06 14:27 | 54.99305 | 12.73420 | 34945 ft | 464 kts | 68° |
| 2026-05-06 14:27 | 55.01906 | 12.83710 | 34947 ft | 463 kts | 68° |
| 2026-05-06 14:28 | 55.04490 | 12.93998 | 34950 ft | 462 kts | 68° |
| 2026-05-06 14:28 | 55.07057 | 13.04273 | 34943 ft | 462 kts | 68° |
| 2026-05-06 14:29 | 55.09623 | 13.14575 | 34953 ft | 462 kts | 69° |
| 2026-05-06 14:29 | 55.12161 | 13.24833 | 34948 ft | 463 kts | 69° |
| 2026-05-06 14:30 | 55.14712 | 13.35199 | 34931 ft | 463 kts | 69° |
| 2026-05-06 14:30 | 55.17240 | 13.45495 | 34936 ft | 463 kts | 69° |
| 2026-05-06 14:31 | 55.19776 | 13.55881 | 34941 ft | 464 kts | 69° |
| 2026-05-06 14:31 | 55.22298 | 13.66286 | 34939 ft | 464 kts | 69° |
| 2026-05-06 14:32 | 55.24818 | 13.76709 | 34946 ft | 464 kts | 69° |
| 2026-05-06 14:32 | 55.27331 | 13.87138 | 34948 ft | 464 kts | 69° |
| 2026-05-06 14:33 | 55.29816 | 13.97491 | 34947 ft | 464 kts | 69° |
| 2026-05-06 14:33 | 55.32314 | 14.07978 | 34948 ft | 463 kts | 69° |
| 2026-05-06 14:34 | 55.34788 | 14.18405 | 34949 ft | 463 kts | 69° |
| 2026-05-06 14:34 | 55.37246 | 14.28820 | 34951 ft | 463 kts | 69° |
| 2026-05-06 14:35 | 55.39710 | 14.39297 | 34947 ft | 463 kts | 69° |
| 2026-05-06 14:35 | 55.42163 | 14.49766 | 34947 ft | 463 kts | 70° |
| 2026-05-06 14:36 | 55.44600 | 14.60270 | 34948 ft | 463 kts | 69° |
| 2026-05-06 14:36 | 55.47026 | 14.70772 | 34947 ft | 463 kts | 69° |
| 2026-05-06 14:37 | 55.49447 | 14.81293 | 34946 ft | 463 kts | 69° |
| 2026-05-06 14:37 | 55.51860 | 14.91808 | 34954 ft | 464 kts | 70° |
| 2026-05-06 14:38 | 55.54274 | 15.02367 | 34955 ft | 463 kts | 70° |
| 2026-05-06 14:38 | 55.56673 | 15.12921 | 34949 ft | 463 kts | 70° |
| 2026-05-06 14:39 | 55.59057 | 15.23495 | 34950 ft | 463 kts | 70° |
| 2026-05-06 14:39 | 55.61439 | 15.34112 | 34938 ft | 464 kts | 70° |
| 2026-05-06 14:40 | 55.63422 | 15.42955 | 34936 ft | 465 kts | 70° |
| 2026-05-06 14:40 | 55.65797 | 15.53634 | 34943 ft | 466 kts | 70° |
| 2026-05-06 14:41 | 55.68156 | 15.64321 | 34941 ft | 466 kts | 70° |
| 2026-05-06 14:41 | 55.70521 | 15.75038 | 34943 ft | 466 kts | 70° |
| 2026-05-06 14:42 | 55.72860 | 15.85683 | 34948 ft | 466 kts | 70° |
| 2026-05-06 14:42 | 55.75197 | 15.96417 | 34936 ft | 466 kts | 71° |
| 2026-05-06 14:43 | 55.77536 | 16.07181 | 34946 ft | 467 kts | 71° |
| 2026-05-06 14:43 | 55.79866 | 16.17983 | 34955 ft | 467 kts | 71° |
| 2026-05-06 14:44 | 55.82165 | 16.28703 | 34956 ft | 467 kts | 71° |
| 2026-05-06 14:45 | 55.85617 | 16.44898 | 34954 ft | 467 kts | 71° |
| 2026-05-06 14:45 | 55.87908 | 16.55708 | 34952 ft | 467 kts | 71° |
| 2026-05-06 14:46 | 55.90192 | 16.66529 | 34952 ft | 467 kts | 71° |
| 2026-05-06 14:46 | 55.92467 | 16.77364 | 34956 ft | 467 kts | 71° |
| 2026-05-06 14:47 | 55.94723 | 16.88203 | 34952 ft | 467 kts | 72° |
| 2026-05-06 14:47 | 55.96971 | 16.99072 | 34955 ft | 467 kts | 72° |
| 2026-05-06 14:48 | 55.99216 | 17.09955 | 34961 ft | 467 kts | 72° |
| 2026-05-06 14:48 | 56.01459 | 17.20864 | 34960 ft | 467 kts | 72° |
| 2026-05-06 14:49 | 56.03682 | 17.31769 | 34946 ft | 466 kts | 72° |
| 2026-05-06 14:49 | 56.05868 | 17.42563 | 34965 ft | 464 kts | 72° |
| 2026-05-06 14:50 | 56.08071 | 17.53466 | 34965 ft | 463 kts | 72° |
| 2026-05-06 14:50 | 56.10236 | 17.64247 | 34960 ft | 463 kts | 73° |
| 2026-05-06 14:51 | 56.12402 | 17.75107 | 34963 ft | 462 kts | 73° |
| 2026-05-06 14:51 | 56.14556 | 17.85984 | 34952 ft | 462 kts | 73° |
| 2026-05-06 14:52 | 56.16694 | 17.96845 | 34940 ft | 462 kts | 73° |
| 2026-05-06 14:52 | 56.18830 | 18.07714 | 34954 ft | 462 kts | 73° |
| 2026-05-06 14:53 | 56.20961 | 18.18602 | 34952 ft | 461 kts | 73° |
| 2026-05-06 14:53 | 56.22989 | 18.29516 | 34951 ft | 459 kts | 80° |
| 2026-05-06 14:54 | 56.24279 | 18.40728 | 34960 ft | 457 kts | 82° |
| 2026-05-06 14:54 | 56.25558 | 18.51932 | 34960 ft | 457 kts | 82° |
| 2026-05-06 14:55 | 56.26822 | 18.63080 | 34959 ft | 457 kts | 82° |
| 2026-05-06 14:55 | 56.28071 | 18.74287 | 34939 ft | 457 kts | 82° |
| 2026-05-06 14:56 | 56.29309 | 18.85519 | 34949 ft | 457 kts | 82° |
| 2026-05-06 14:56 | 56.31052 | 18.96557 | 34946 ft | 461 kts | 75° |
| 2026-05-06 14:57 | 56.33130 | 19.07499 | 34948 ft | 461 kts | 75° |
| 2026-05-06 14:57 | 56.35196 | 19.18444 | 34956 ft | 461 kts | 75° |
| 2026-05-06 14:58 | 56.37238 | 19.29327 | 34955 ft | 461 kts | 75° |
| 2026-05-06 14:58 | 56.39283 | 19.40283 | 34946 ft | 461 kts | 75° |
| 2026-05-06 14:59 | 56.41313 | 19.51246 | 34945 ft | 461 kts | 75° |
| 2026-05-06 14:59 | 56.43343 | 19.62257 | 34948 ft | 461 kts | 75° |
| 2026-05-06 15:00 | 56.45363 | 19.73261 | 34948 ft | 461 kts | 75° |
| 2026-05-06 15:00 | 56.47363 | 19.84286 | 34945 ft | 461 kts | 75° |
| 2026-05-06 15:01 | 56.49358 | 19.95332 | 34946 ft | 461 kts | 75° |
| 2026-05-06 15:01 | 56.51190 | 20.06349 | 34909 ft | 458 kts | 83° |
| 2026-05-06 15:02 | 56.51493 | 20.17749 | 34909 ft | 451 kts | 99° |
| 2026-05-06 15:02 | 56.50960 | 20.29082 | 34900 ft | 453 kts | 98° |
| 2026-05-06 15:03 | 56.50444 | 20.40476 | 34908 ft | 454 kts | 98° |
| 2026-05-06 15:03 | 56.49923 | 20.51872 | 34911 ft | 455 kts | 99° |
| 2026-05-06 15:03 | 56.49653 | 20.57654 | 34683 ft | 466 kts | 99° |
| 2026-05-06 15:04 | 56.49368 | 20.63548 | 34452 ft | 472 kts | 99° |
| 2026-05-06 15:04 | 56.49079 | 20.69479 | 34144 ft | 473 kts | 99° |
| 2026-05-06 15:04 | 56.48790 | 20.75431 | 33191 ft | 476 kts | 99° |
| 2026-05-06 15:04 | 56.48503 | 20.81326 | 32685 ft | 467 kts | 99° |
| 2026-05-06 15:05 | 56.48221 | 20.87139 | 31493 ft | 464 kts | 99° |
| 2026-05-06 15:05 | 56.47933 | 20.92941 | 30950 ft | 459 kts | 99° |
| 2026-05-06 15:05 | 56.47648 | 20.98653 | 30542 ft | 451 kts | 99° |
| 2026-05-06 15:05 | 56.47366 | 21.04219 | 29974 ft | 448 kts | 99° |
| 2026-05-06 15:06 | 56.47078 | 21.09810 | 29370 ft | 444 kts | 100° |
| 2026-05-06 15:06 | 56.46785 | 21.15412 | 28820 ft | 438 kts | 100° |
| 2026-05-06 15:06 | 56.46501 | 21.20797 | 28279 ft | 433 kts | 100° |
| 2026-05-06 15:06 | 56.46214 | 21.26187 | 27737 ft | 428 kts | 100° |
| 2026-05-06 15:07 | 56.45926 | 21.31520 | 27218 ft | 423 kts | 100° |
| 2026-05-06 15:07 | 56.45641 | 21.36771 | 26693 ft | 418 kts | 100° |
| 2026-05-06 15:07 | 56.45358 | 21.41974 | 26182 ft | 413 kts | 100° |
| 2026-05-06 15:07 | 56.45080 | 21.47115 | 25681 ft | 408 kts | 100° |
| 2026-05-06 15:08 | 56.44803 | 21.52192 | 25205 ft | 403 kts | 101° |
| 2026-05-06 15:08 | 56.44524 | 21.57210 | 24709 ft | 399 kts | 101° |
| 2026-05-06 15:08 | 56.44244 | 21.62186 | 24250 ft | 395 kts | 101° |
| 2026-05-06 15:08 | 56.43965 | 21.67106 | 23794 ft | 392 kts | 101° |
| 2026-05-06 15:09 | 56.43687 | 21.71988 | 23341 ft | 389 kts | 101° |
| 2026-05-06 15:09 | 56.43412 | 21.76836 | 22886 ft | 387 kts | 101° |
| 2026-05-06 15:09 | 56.43140 | 21.81654 | 22465 ft | 384 kts | 101° |
| 2026-05-06 15:09 | 56.42865 | 21.86437 | 22044 ft | 383 kts | 101° |
| 2026-05-06 15:10 | 56.42585 | 21.91216 | 21617 ft | 381 kts | 101° |
| 2026-05-06 15:10 | 56.42305 | 21.95966 | 21188 ft | 379 kts | 101° |
| 2026-05-06 15:10 | 56.42025 | 22.00689 | 20757 ft | 377 kts | 101° |
| 2026-05-06 15:10 | 56.41745 | 22.05369 | 20316 ft | 375 kts | 101° |
| 2026-05-06 15:11 | 56.41465 | 22.10039 | 19882 ft | 373 kts | 101° |
| 2026-05-06 15:11 | 56.41184 | 22.14669 | 19418 ft | 371 kts | 101° |
| 2026-05-06 15:11 | 56.40903 | 22.19296 | 18983 ft | 369 kts | 102° |
| 2026-05-06 15:11 | 56.40619 | 22.23903 | 18534 ft | 368 kts | 102° |
| 2026-05-06 15:12 | 56.40337 | 22.28471 | 18057 ft | 367 kts | 101° |
| 2026-05-06 15:12 | 56.40054 | 22.33044 | 17597 ft | 365 kts | 101° |
| 2026-05-06 15:12 | 56.39778 | 22.37521 | 17167 ft | 361 kts | 101° |
| 2026-05-06 15:12 | 56.39499 | 22.42015 | 16717 ft | 358 kts | 101° |
| 2026-05-06 15:13 | 56.39221 | 22.46446 | 16307 ft | 354 kts | 101° |
| 2026-05-06 15:13 | 56.38942 | 22.50851 | 15885 ft | 351 kts | 101° |
| 2026-05-06 15:13 | 56.38848 | 22.55274 | 15459 ft | 353 kts | 90° |
| 2026-05-06 15:13 | 56.39267 | 22.59641 | 15039 ft | 355 kts | 76° |
| 2026-05-06 15:14 | 56.40193 | 22.63806 | 14538 ft | 364 kts | 64° |
| 2026-05-06 15:14 | 56.41628 | 22.67606 | 13958 ft | 370 kts | 51° |
| 2026-05-06 15:14 | 56.43412 | 22.70987 | 13353 ft | 371 kts | 48° |
| 2026-05-06 15:14 | 56.45192 | 22.74326 | 12936 ft | 366 kts | 48° |
| 2026-05-06 15:15 | 56.46915 | 22.77578 | 12142 ft | 359 kts | 48° |
| 2026-05-06 15:15 | 56.48658 | 22.80890 | 11660 ft | 356 kts | 48° |
| 2026-05-06 15:15 | 56.50333 | 22.84079 | 11259 ft | 351 kts | 48° |
| 2026-05-06 15:15 | 56.51965 | 22.87188 | 11108 ft | 329 kts | 49° |
| 2026-05-06 15:16 | 56.53495 | 22.90105 | 10930 ft | 310 kts | 49° |
| 2026-05-06 15:16 | 56.54953 | 22.92895 | 10420 ft | 303 kts | 49° |
| 2026-05-06 15:16 | 56.56387 | 22.95646 | 10130 ft | 297 kts | 49° |
| 2026-05-06 15:16 | 56.57803 | 22.98359 | 9917 ft | 294 kts | 49° |
| 2026-05-06 15:17 | 56.59224 | 23.01021 | 9796 ft | 294 kts | 48° |
| 2026-05-06 15:17 | 56.60657 | 23.03673 | 9619 ft | 293 kts | 48° |
| 2026-05-06 15:17 | 56.62082 | 23.06305 | 9327 ft | 290 kts | 48° |
| 2026-05-06 15:17 | 56.63486 | 23.08900 | 9006 ft | 287 kts | 48° |
| 2026-05-06 15:18 | 56.64875 | 23.11477 | 8704 ft | 284 kts | 48° |
| 2026-05-06 15:18 | 56.66247 | 23.14032 | 8385 ft | 280 kts | 48° |
| 2026-05-06 15:18 | 56.67597 | 23.16555 | 8072 ft | 277 kts | 48° |
| 2026-05-06 15:18 | 56.68935 | 23.19058 | 7760 ft | 274 kts | 48° |
| 2026-05-06 15:19 | 56.70259 | 23.21535 | 7468 ft | 271 kts | 47° |
| 2026-05-06 15:19 | 56.71563 | 23.23976 | 7172 ft | 268 kts | 49° |
| 2026-05-06 15:19 | 56.72772 | 23.26514 | 6874 ft | 263 kts | 57° |
| 2026-05-06 15:19 | 56.73831 | 23.29190 | 6592 ft | 259 kts | 57° |
| 2026-05-06 15:20 | 56.74884 | 23.31837 | 6300 ft | 256 kts | 56° |
| 2026-05-06 15:20 | 56.75913 | 23.34418 | 6005 ft | 254 kts | 57° |
| 2026-05-06 15:20 | 56.76942 | 23.37008 | 5723 ft | 251 kts | 56° |
| 2026-05-06 15:20 | 56.77962 | 23.39579 | 5447 ft | 249 kts | 56° |
| 2026-05-06 15:21 | 56.78972 | 23.42126 | 5175 ft | 247 kts | 56° |
| 2026-05-06 15:21 | 56.79980 | 23.44667 | 4898 ft | 246 kts | 56° |
| 2026-05-06 15:21 | 56.80978 | 23.47182 | 4619 ft | 244 kts | 56° |
| 2026-05-06 15:21 | 56.81968 | 23.49686 | 4352 ft | 242 kts | 56° |
| 2026-05-06 15:22 | 56.82933 | 23.52180 | 4084 ft | 240 kts | 61° |
| 2026-05-06 15:22 | 56.83559 | 23.54960 | 3889 ft | 236 kts | 78° |
| 2026-05-06 15:22 | 56.83692 | 23.57942 | 3735 ft | 236 kts | 95° |
| 2026-05-06 15:22 | 56.83511 | 23.60923 | 3587 ft | 235 kts | 96° |
| 2026-05-06 15:23 | 56.83329 | 23.63885 | 3424 ft | 234 kts | 96° |
| 2026-05-06 15:23 | 56.83150 | 23.66807 | 3306 ft | 226 kts | 96° |
| 2026-05-06 15:23 | 56.82979 | 23.69604 | 3219 ft | 219 kts | 96° |
| 2026-05-06 15:23 | 56.82813 | 23.72342 | 3111 ft | 217 kts | 96° |
| 2026-05-06 15:24 | 56.82508 | 23.75024 | 3028 ft | 216 kts | 114° |
| 2026-05-06 15:24 | 56.81553 | 23.77143 | 3031 ft | 223 kts | 143° |
| 2026-05-06 15:24 | 56.80089 | 23.78142 | 3034 ft | 229 kts | 166° |
| 2026-05-06 15:24 | 56.78537 | 23.78676 | 3031 ft | 230 kts | 165° |
| 2026-05-06 15:25 | 56.76952 | 23.79227 | 3029 ft | 229 kts | 165° |
| 2026-05-06 15:25 | 56.75405 | 23.79766 | 3029 ft | 229 kts | 165° |
| 2026-05-06 15:25 | 56.73821 | 23.80324 | 3041 ft | 230 kts | 164° |
| 2026-05-06 15:25 | 56.72266 | 23.80876 | 3033 ft | 231 kts | 163° |
| 2026-05-06 15:26 | 56.70691 | 23.81481 | 2979 ft | 229 kts | 157° |
| 2026-05-06 15:26 | 56.69496 | 23.83038 | 2879 ft | 203 kts | 119° |
| 2026-05-06 15:26 | 56.69040 | 23.85368 | 2802 ft | 193 kts | 96° |
| 2026-05-06 15:26 | 56.69041 | 23.87718 | 2734 ft | 176 kts | 80° |
| 2026-05-06 15:27 | 56.69383 | 23.89692 | 2683 ft | 155 kts | 65° |
| 2026-05-06 15:27 | 56.69948 | 23.91270 | 2644 ft | 144 kts | 52° |
| 2026-05-06 15:27 | 56.70672 | 23.92488 | 2594 ft | 141 kts | 39° |
| 2026-05-06 15:27 | 56.71532 | 23.93364 | 2533 ft | 143 kts | 27° |
| 2026-05-06 15:28 | 56.72492 | 23.93849 | 2492 ft | 145 kts | 14° |
| 2026-05-06 15:28 | 56.73503 | 23.94024 | 2451 ft | 146 kts | 11° |
| 2026-05-06 15:28 | 56.74510 | 23.94188 | 2388 ft | 145 kts | 11° |
| 2026-05-06 15:28 | 56.75508 | 23.94351 | 2327 ft | 144 kts | 12° |
| 2026-05-06 15:29 | 56.76497 | 23.94514 | 2271 ft | 144 kts | 11° |
| 2026-05-06 15:29 | 56.77490 | 23.94676 | 2220 ft | 143 kts | 11° |
| 2026-05-06 15:29 | 56.78483 | 23.94838 | 2155 ft | 143 kts | 11° |
| 2026-05-06 15:29 | 56.79473 | 23.95000 | 2091 ft | 143 kts | 11° |
| 2026-05-06 15:30 | 56.80457 | 23.95161 | 2042 ft | 142 kts | 11° |
| 2026-05-06 15:30 | 56.81437 | 23.95322 | 1914 ft | 141 kts | 12° |
| 2026-05-06 15:30 | 56.82407 | 23.95481 | 1755 ft | 140 kts | 11° |
| 2026-05-06 15:30 | 56.83372 | 23.95639 | 1556 ft | 139 kts | 10° |
| 2026-05-06 15:31 | 56.84011 | 23.95744 | 1443 ft | 139 kts | 11° |
| 2026-05-06 15:31 | 56.84966 | 23.95901 | 1255 ft | 137 kts | 9° |
| 2026-05-06 15:31 | 56.85915 | 23.96057 | 1060 ft | 136 kts | 8° |
| 2026-05-06 15:32 | 56.87792 | 23.96365 | 668 ft | 134 kts | 7° |
| 2026-05-06 15:32 | 56.88717 | 23.96517 | 480 ft | 135 kts | 6° |
| 2026-05-06 15:32 | 56.89646 | 23.96668 | 269 ft | 134 kts | 5° |
| 2026-05-06 15:32 | 56.90571 | 23.96825 | 86 ft | 132 kts | 4° |
| 2026-05-06 15:33 | 56.91463 | 23.96948 | 39 ft | 119 kts | 12° |
| 2026-05-06 15:33 | 56.92109 | 23.97075 | 37 ft | 54 kts | 4° |
| 2026-05-06 15:33 | 56.92310 | 23.97106 | 37 ft | 28 kts | 10° |
| 2026-05-06 15:33 | 56.92478 | 23.97268 | 36 ft | 18 kts | 37° |
| 2026-05-06 15:34 | 56.92502 | 23.97301 | 36 ft | 0 kts | 36° |
| 2026-05-06 15:35 | 56.92509 | 23.97309 | 36 ft | 7 kts | 36° |
| 2026-05-06 15:35 | 56.92575 | 23.97398 | 35 ft | 8 kts | 36° |
| 2026-05-06 15:35 | 56.92603 | 23.97453 | 36 ft | 4 kts | 69° |
| 2026-05-06 15:36 | 56.92599 | 23.97494 | 36 ft | 7 kts | 114° |
| 2026-05-06 15:36 | 56.92521 | 23.97534 | 36 ft | 12 kts | 179° |
| 2026-05-06 15:36 | 56.92458 | 23.97522 | 35 ft | 7 kts | 187° |
| 2026-05-06 15:36 | 56.92408 | 23.97511 | 36 ft | 9 kts | 187° |
| 2026-05-06 15:37 | 56.92325 | 23.97492 | 37 ft | 12 kts | 187° |
| 2026-05-06 15:37 | 56.92258 | 23.97481 | 35 ft | 8 kts | 184° |
| 2026-05-06 15:37 | 56.92199 | 23.97474 | 37 ft | 8 kts | 184° |
| 2026-05-06 15:37 | 56.92171 | 23.97471 | 35 ft | 2 kts | 182° |
| 2026-05-06 15:38 | 56.92142 | 23.97525 | 37 ft | 12 kts | 106° |
| 2026-05-06 15:38 | 56.92138 | 23.97569 | 37 ft | 6 kts | 100° |
| 2026-05-06 15:38 | 56.92135 | 23.97600 | 37 ft | 6 kts | 99° |
| 2026-05-06 15:38 | 56.92133 | 23.97622 | 37 ft | 2 kts | 98° |
| 2026-05-06 15:39 | 56.92135 | 23.97637 | 37 ft | 4 kts | 74° |
| 2026-05-06 15:39 | 56.92164 | 23.97661 | 37 ft | 2 kts | 354° |
| 2026-05-06 15:39 | 56.92176 | 23.97662 | 37 ft | 1 kts | 2° |
| 2026-05-06 15:39 | 56.92186 | 23.97664 | 37 ft | 3 kts | 5° |
| 2026-05-06 15:40 | 56.92191 | 23.97664 | 35 ft | 0 kts | 5° |